Tiempo atmosférico en la estación meteorológica de Barbadillo, Salamanca (817 m.)



Fecha
DESCASC
Temp. máxima en grados centígrados (hora)
DESCASC
Temp. mínima en grados centígrados (hora)
DESCASC
Temp. media en grados centígrados
DESCASC
Racha de viento máxima en m/sg (hora)
DESCASC
Velocidad máxima media en intervalos de 10 minutos(hora)
DESCASC
Precipitaciones diarias en mm
DESCASC
Precipitaciones de 00:00 a 06:00 en mm
DESCASC
Precipitaciones de 06:00 a 12:00 en mm
DESCASC
Precipitaciones de 12:00 a 18:00 en mm
DESCASC
Precipitaciones de 18:00 a 24:00 en mm
DESCASC
26-03-2020 14.6 (16:50) -2 (07:20) 6.3 10.28 (23:20) 7.22 (23:59) 0 0 0 0 0
25-03-2020 16.6 (15:20) 0.5 (05:20) 8.6 12.22 (14:30) 6.11 (18:00) 4.8 0 0 3.6 1.2
24-03-2020 15.4 (15:10) 3.4 (07:00) 9.4 9.72 (15:50) 5.83 (13:20) 0 0 0 0 0
23-03-2020 14.4 (14:50) 0.2 (05:40) 7.3 11.67 (16:30) 7.22 (16:20) 0.2 0 0 0.2 0
22-03-2020 12.8 (17:10) 2.8 (01:00) 7.8 8.61 (18:30) 4.72 (18:30) 0.4 0.2 0 0 0.2
21-03-2020 9.2 (14:20) 3.3 (00:00) 6.2 7.5 (01:50) 4.72 (01:20) 3.8 0 2.6 1.2 0
20-03-2020 12.2 (11:50) 5.4 (00:00) 8.8 10.28 (20:50) 6.11 (20:50) 0 0 0 0 0
19-03-2020 14.1 (13:50) 4 (00:00) 9.1 3.61 (18:00) 2.5 (17:50) 0 0 0 0 0
18-03-2020 16.6 (15:50) 5.3 (00:00) 11 9.17 (03:50) 6.11 (15:20) 0 0 0 0 0
17-03-2020 14.1 (17:10) 3 (00:00) 8.6 11.67 (17:10) 7.78 (16:50) 1.4 1.4 0 0 0
16-03-2020 5 (18:50) 0.4 (00:00) 2.7 15.83 (19:20) 9.17 (21:30) 19 2.2 5.2 7.2 4.4
15-03-2020 17.6 (12:00) -2.1 (-00:0) 7.8 13.61 (15:10) 7.5 (15:10) 0.4 0 0 0 0.4
14-03-2020 18.1 (16:50) -1.5 (-00:0) 8.3 6.11 (13:30) 4.17 (12:10) 0 0 0 0 0
13-03-2020 15.8 (17:10) 3.2 (23:59) 9.5 8.06 (08:00) 5.56 (09:10) 0 0 0 0 0
12-03-2020 22.8 (13:00) 6.5 (00:00) 14.6 10.56 (12:50) 6.11 (12:40) 0 0 0 0 0
11-03-2020 23.9 (16:30) 2.8 (00:00) 13.3 6.67 (16:50) 3.89 (13:50) 0 0 0 0 0
10-03-2020 21.7 (16:10) 2.3 (00:00) 12 7.78 (15:30) 5.28 (15:50) 0 0 0 0 0
09-03-2020 14.4 (16:30) 2.3 (00:00) 8.3 6.39 (00:10) 4.44 (00:10) 0 0 0 0 0
08-03-2020 10.9 (15:30) -1.5 (-00:0) 4.7 9.17 (23:50) 5.56 (15:40) 0 0 0 0 0
07-03-2020 13.7 (17:00) -0.7 (-00:0) 6.5 5 (00:40) 2.78 (17:20) 0 0 0 0 0
06-03-2020 9.3 (16:50) 2.5 (00:00) 5.9 13.61 (11:50) 7.22 (12:20) 0.4 0.2 0.2 0 0
05-03-2020 12.1 (16:40) 4.2 (00:00) 8.2 18.89 (08:50) 9.72 (08:50) 2.2 0 1.8 0 0.4
04-03-2020 13.7 (16:20) 9 (07:40) 11.3 12.22 (04:50) 6.11 (00:50) 0.4 0.4 0 0 0
03-03-2020 13.6 (16:20) 4 (00:00) 8.8 15.56 (06:10) 8.89 (06:00) 0 0 0 0 0
02-03-2020 11 (00:30) 2.9 (00:00) 7 35.56 (04:50) 13.89 (04:50) 2.4 1.8 0.2 0.4 0
01-03-2020 14.8 (16:10) 6.5 (00:00) 10.7 20.56 (23:00) 11.94 (23:20) 2.6 0 0 0 2.6
29-02-2020 12.6 (12:10) 6.2 (00:00) 9.4 17.78 (16:00) 10.83 (14:40) 0.4 0 0 0.4 0
28-02-2020 17.9 (14:40) -0.7 (-00:0) 8.6 10.28 (16:10) 7.5 (15:40) 0 0 0 0 0

Gráficas

Temp. máximas Temp. mínimas Temp. medias Precipitaciones Rachas de viento máximas Velocidades máximas media en intervalos de 10 minutos

Datos horarios

Fecha y hora oficial Temperatura (ºC) Velocidad del viento (km/h) Dirección del viento Racha (km/h) Dirección de racha Precipitación (mm) Presión (hPa) Tendencia (hPa) Humedad (%)
2020-03-28 23:00:00 3.5 5 Sur 7 Sur 0 -- -- 82
2020-03-28 22:00:00 4.8 3 Sur 9 Sur 0 -- -- 81
2020-03-28 21:00:00 7 3 Sudoeste 7 Nordeste 0 -- -- 72
2020-03-28 20:00:00 9.8 3 Nordeste 8 Norte 0 -- -- 59
2020-03-28 19:00:00 12 5 Norte 12 Norte 0 -- -- 54
2020-03-28 18:00:00 13.9 4 Norte 12 Nordeste 0 -- -- 40
2020-03-28 17:00:00 14.6 5 Norte 21 Este 0 -- -- 39
2020-03-28 16:00:00 14.6 11 Nordeste 21 Este 0 -- -- 42
2020-03-28 15:00:00 13.4 8 Nordeste 26 Nordeste 0 -- -- 45
2020-03-28 14:00:00 13.1 13 Nordeste 31 Nordeste 0 -- -- 48
2020-03-28 13:00:00 12.2 18 Nordeste 36 Nordeste 0 -- -- 48
2020-03-28 12:00:00 11.3 20 Este 33 Nordeste 0 -- -- 53
2020-03-28 11:00:00 9.7 20 Nordeste 29 Este 0 -- -- 58
2020-03-28 10:00:00 6.7 13 Este 17 Este 0 -- -- 71
2020-03-28 09:00:00 1.2 2 Sudeste 4 Sur 0 -- -- 92
2020-03-28 08:00:00 -2.8 0 Calma 2 Sudeste 0 -- -- 92
2020-03-28 07:00:00 -3.3 2 Sur 4 Sur 0 -- -- 90
2020-03-28 06:00:00 -2.7 0 Calma 5 Sur 0 -- -- 91
2020-03-28 05:00:00 -2.4 3 Sur 6 Sur 0 -- -- 91
2020-03-28 04:00:00 -2.1 8 Sur 10 Sur 0 -- -- 91
2020-03-28 03:00:00 -1.9 4 Sur 8 Sudeste 0 -- -- 91
2020-03-28 02:00:00 -1.7 0 Calma 6 Sur 0 -- -- 87
2020-03-28 01:00:00 -0.9 3 Sur 5 Sur 0 -- -- 88
2020-03-28 00:00:00 -0.2 5 Sur 6 Sudeste 0 -- -- 86
2020-03-27 23:00:00 1.1 0 Calma 4 Nordeste 0 -- -- 80
2020-03-27 22:00:00 2.7 0 Calma 4 Norte 0 -- -- 74
2020-03-27 21:00:00 4.8 0 Calma 14 Este 0 -- -- 68
2020-03-27 20:00:00 7.3 10 Este 20 Este 0 -- -- 54
2020-03-27 19:00:00 10 15 Este 31 Este 0 -- -- 46
2020-03-27 18:00:00 10.9 15 Este 27 Este 0 -- -- 45
2020-03-27 17:00:00 11.4 18 Este 31 Nordeste 0 -- -- 42
2020-03-27 16:00:00 10.8 19 Este 32 Este 0 -- -- 50
2020-03-27 15:00:00 10.7 13 Este 36 Nordeste 0 -- -- 49
2020-03-27 14:00:00 9.7 15 Este 35 Este 0 -- -- 45
2020-03-27 13:00:00 8.7 17 Nordeste 30 Nordeste 0 -- -- 49
2020-03-27 12:00:00 7.5 20 Nordeste 32 Nordeste 0 -- -- 55
2020-03-27 11:00:00 5.6 16 Nordeste 30 Este 0 -- -- 62
2020-03-27 10:00:00 3.2 19 Este 32 Este 0 -- -- 70
2020-03-27 09:00:00 1.6 17 Nordeste 26 Nordeste 0 -- -- 75
2020-03-27 08:00:00 -0.1 12 Este 21 Nordeste 0 -- -- 80
2020-03-27 07:00:00 -0.4 8 Este 19 Nordeste 0 -- -- 80
2020-03-27 06:00:00 0.3 8 Nordeste 23 Nordeste 0 -- -- 79
2020-03-27 05:00:00 1.4 15 Este 29 Nordeste 0 -- -- 74
2020-03-27 04:00:00 0.9 13 Nordeste 19 Este 0 -- -- 81
2020-03-27 03:00:00 1.7 7 Este 21 Este 0 -- -- 82
2020-03-27 02:00:00 2.6 13 Este 34 Este 0 -- -- 80
2020-03-27 01:00:00 3.5 22 Este 37 Nordeste 0 -- -- 77
2020-03-27 00:00:00 4.3 26 Este 37 Este 0 -- -- 76
2020-03-26 23:00:00 5.1 19 Este 28 Este 0 -- -- 75
2020-03-26 22:00:00 4.8 0 Calma 5 Sur 0 -- -- 75
2020-03-26 21:00:00 7.3 0 Calma 9 Este 0 -- -- 66
2020-03-26 20:00:00 10.6 3 Este 10 Este 0 -- -- 49
2020-03-26 19:00:00 13.1 6 Nordeste 13 Nordeste 0 -- -- 41
2020-03-26 18:00:00 14.4 8 Norte 15 Norte 0 -- -- 30
2020-03-26 17:00:00 14.4 9 Norte 19 Norte 0 -- -- 34
2020-03-26 16:00:00 14 7 Norte 18 Norte 0 -- -- 44
2020-03-26 15:00:00 13.6 6 Nordeste 18 Norte 0 -- -- 43
2020-03-26 14:00:00 12.4 6 Nordeste 16 Noroeste 0 -- -- 51
2020-03-26 13:00:00 11.9 8 Nordeste 16 Norte 0 -- -- 55
2020-03-26 12:00:00 10.9 5 Nordeste 13 Nordeste 0 -- -- 65
2020-03-26 11:00:00 9.6 2 Este 7 Este 0 -- -- 68
2020-03-26 10:00:00 6.5 0 Calma 10 Este 0 -- -- 83
2020-03-26 09:00:00 2.6 2 Sudeste 5 Sur 0 -- -- 94
2020-03-26 08:00:00 -1.4 2 Sur 5 Sudeste 0 -- -- 94
2020-03-26 07:00:00 -1.8 5 Sudoeste 7 Sudoeste 0 -- -- 92
2020-03-26 06:00:00 -1 5 Sur 7 Sur 0 -- -- 92
2020-03-26 05:00:00 -0.4 3 Sur 8 Sur 0 -- -- 91
2020-03-26 04:00:00 0.4 4 Sudoeste 8 Sur 0 -- -- 89
2020-03-26 03:00:00 1.4 5 Sur 9 Sudoeste 0 -- -- 86
2020-03-26 02:00:00 3.2 7 Sur 10 Norte 0 -- -- 81
2020-03-26 01:00:00 5.9 6 Norte 17 Noroeste 0 -- -- 64
2020-03-26 00:00:00 8.2 6 Noroeste 19 Noroeste 0 -- -- 63
2020-03-25 23:00:00 9.2 7 Noroeste 19 Sudoeste 0 -- -- 88
2020-03-25 22:00:00 9.2 11 Sudoeste 23 Sudoeste 0 -- -- 86
2020-03-25 21:00:00 9.1 8 Sudoeste 14 Sur 0 -- -- 91
2020-03-25 20:00:00 9.3 8 Sudoeste 15 Sur 0 -- -- 89
2020-03-25 19:00:00 10.1 13 Sur 22 Sudeste 1.2 -- -- 85
2020-03-25 18:00:00 10.9 22 Este 34 Nordeste 3.4 -- -- 79
2020-03-25 17:00:00 13.3 4 Este 25 Nordeste 0.2 -- -- 68
2020-03-25 16:00:00 16.2 12 Noroeste 26 Noroeste 0 -- -- 45
2020-03-25 15:00:00 16.1 12 Noroeste 44 Oeste 0 -- -- 46
2020-03-25 14:00:00 14.9 13 Noroeste 26 Oeste 0 -- -- 58
2020-03-25 13:00:00 14.3 13 Noroeste 21 Noroeste 0 -- -- 60
2020-03-25 12:00:00 13.3 12 Oeste 22 Oeste 0 -- -- 69
2020-03-25 11:00:00 11.2 9 Oeste 18 Oeste 0 -- -- 78
2020-03-25 10:00:00 9.9 14 Oeste 21 Oeste 0 -- -- 83
2020-03-25 09:00:00 4.6 0 Calma 5 Sur 0 -- -- 98
2020-03-25 08:00:00 1.7 3 Sur 9 Sur 0 -- -- 96
2020-03-25 07:00:00 1 3 Sur 6 Norte 0 -- -- 95
2020-03-25 06:00:00 0.6 0 Calma 5 Nordeste 0 -- -- 94
2020-03-25 05:00:00 0.7 0 Calma 6 Sur 0 -- -- 92
2020-03-25 04:00:00 1.3 4 Sur 7 Sur 0 -- -- 93
2020-03-25 03:00:00 1.9 3 Sudeste 7 Sudoeste 0 -- -- 92
2020-03-25 02:00:00 2.8 2 Sur 6 Sur 0 -- -- 90
2020-03-25 01:00:00 4.2 0 Calma 9 Sudeste 0 -- -- 87
2020-03-25 00:00:00 4.7 3 Oeste 6 Sur 0 -- -- 86
2020-03-24 23:00:00 6.9 0 Calma 10 Este 0 -- -- 78
2020-03-24 22:00:00 8.1 9 Este 12 Este 0 -- -- 78
2020-03-24 21:00:00 9 0 Calma 5 Este 0 -- -- 77
2020-03-24 20:00:00 11.4 2 Nordeste 13 Nordeste 0 -- -- 69
2020-03-24 19:00:00 13.8 13 Nordeste 22 Este 0 -- -- 58
2020-03-24 18:00:00 15 12 Este 25 Este 0 -- -- 53
2020-03-24 17:00:00 15 10 Nordeste 25 Nordeste 0 -- -- 54
2020-03-24 16:00:00 14.9 14 Este 35 Este 0 -- -- 54
2020-03-24 15:00:00 15.1 17 Este 29 Este 0 -- -- 56
2020-03-24 14:00:00 15 19 Nordeste 31 Nordeste 0 -- -- 57
2020-03-24 13:00:00 13.7 19 Este 32 Este 0 -- -- 65
2020-03-24 12:00:00 12.7 19 Nordeste 33 Nordeste 0 -- -- 70
2020-03-24 11:00:00 10.8 18 Nordeste 24 Este 0 -- -- 74
2020-03-24 10:00:00 8.3 11 Este 25 Nordeste 0 -- -- 86
2020-03-24 09:00:00 6.4 10 Este 18 Este 0 -- -- 90
2020-03-24 08:00:00 3.6 7 Nordeste 19 Este 0 -- -- 94
2020-03-24 07:00:00 3.4 12 Este 22 Este 0 -- -- 93
2020-03-24 06:00:00 4.2 14 Este 23 Este 0 -- -- 91
2020-03-24 05:00:00 4.8 15 Este 22 Este 0 -- -- 90
2020-03-24 04:00:00 4.8 13 Este 22 Este 0 -- -- 91
2020-03-24 03:00:00 5.1 13 Este 19 Este 0 -- -- 90
2020-03-24 02:00:00 5.3 13 Este 21 Este 0 -- -- 89
2020-03-24 01:00:00 5.5 13 Este 19 Este 0 -- -- 88
2020-03-24 00:00:00 5.7 13 Este 20 Este 0 -- -- 87
2020-03-23 23:00:00 6.1 16 Este 20 Este 0 -- -- 85
2020-03-23 22:00:00 6.6 10 Este 16 Este 0 -- -- 83
2020-03-23 21:00:00 7.6 8 Este 13 Este 0 -- -- 83
2020-03-23 20:00:00 9.5 8 Este 18 Nordeste 0 -- -- 77
2020-03-23 19:00:00 12.1 11 Este 23 Nordeste 0 -- -- 67
2020-03-23 18:00:00 12.2 13 Nordeste 20 Nordeste 0 -- -- 67
2020-03-23 17:00:00 10.6 15 Este 42 Este 0.2 -- -- 79
2020-03-23 16:00:00 13.7 22 Nordeste 38 Nordeste 0 -- -- 69
2020-03-23 15:00:00 13.6 18 Nordeste 32 Nordeste 0 -- -- 62
2020-03-23 14:00:00 13.3 19 Nordeste 29 Nordeste 0 -- -- 65
2020-03-23 13:00:00 11.9 18 Este 31 Este 0 -- -- 71
2020-03-23 12:00:00 11.3 13 Nordeste 24 Este 0 -- -- 71
2020-03-23 11:00:00 9.7 12 Nordeste 22 Nordeste 0 -- -- 86
2020-03-23 10:00:00 6.5 6 Nordeste 14 Nordeste 0 -- -- 100
2020-03-23 09:00:00 4 9 Este 12 Nordeste 0 -- -- 98
2020-03-23 08:00:00 2.4 2 Este 6 Este 0 -- -- 99
2020-03-23 07:00:00 0.6 0 Calma 6 Sudeste 0 -- -- 96
2020-03-23 06:00:00 0.3 2 Sur 6 Sudeste 0 -- -- 96
2020-03-23 05:00:00 0.8 0 Calma 6 Sur 0 -- -- 95
2020-03-23 04:00:00 1.5 3 Sur 8 Sur 0 -- -- 95
2020-03-23 03:00:00 2.5 3 Sur 6 Sudoeste 0 -- -- 95
2020-03-23 02:00:00 3.4 4 Sudoeste 6 Sudoeste 0 -- -- 94
2020-03-23 01:00:00 4.8 3 Sur 11 Sur 0 -- -- 95
2020-03-23 00:00:00 5 4 Sur 6 Sudeste 0 -- -- 95
2020-03-22 23:00:00 5.5 2 Noroeste 6 Norte 0 -- -- 91
2020-03-22 22:00:00 6.9 2 Sudeste 8 Este 0 -- -- 90
2020-03-22 21:00:00 8.3 4 Sudeste 14 Sudeste 0 -- -- 87
2020-03-22 20:00:00 9.4 13 Este 29 Nordeste 0 -- -- 83
2020-03-22 19:00:00 9.8 8 Norte 31 Nordeste 0.2 -- -- 83
2020-03-22 18:00:00 12.6 10 Nordeste 23 Nordeste 0 -- -- 66
2020-03-22 17:00:00 12.7 13 Nordeste 23 Nordeste 0 -- -- 67
2020-03-22 16:00:00 11.6 11 Nordeste 20 Norte 0 -- -- 70
2020-03-22 15:00:00 11.1 8 Norte 18 Este 0 -- -- 75
2020-03-22 14:00:00 9.7 10 Norte 18 Este 0 -- -- 81
2020-03-22 13:00:00 9 10 Nordeste 19 Este 0 -- -- 84
2020-03-22 12:00:00 8.4 11 Este 22 Este 0 -- -- 87
2020-03-22 11:00:00 8 10 Nordeste 14 Nordeste 0 -- -- 89
2020-03-22 10:00:00 7.3 7 Este 16 Este 0 -- -- 90
2020-03-22 09:00:00 6.5 8 Nordeste 15 Este 0 -- -- 95
2020-03-22 08:00:00 6 6 Nordeste 13 Nordeste 0 -- -- 98
2020-03-22 07:00:00 5.9 2 Norte 3 Nordeste 0 -- -- 98
2020-03-22 06:00:00 5.8 2 Noroeste 5 Noroeste 0 -- -- 98
2020-03-22 05:00:00 5.5 4 Noroeste 7 Noroeste 0 -- -- 98
2020-03-22 04:00:00 5 0 Calma 3 Norte 0 -- -- 98
2020-03-22 03:00:00 4.5 0 Calma 4 Sur 0 -- -- 98
2020-03-22 02:00:00 3.6 2 Sur 6 Sur 0.2 -- -- 97
2020-03-22 01:00:00 2.8 4 Sur 6 Sur 0 -- -- 96
2020-03-22 00:00:00 3.3 3 Sur 7 Sur 0 -- -- 95
2020-03-21 23:00:00 3.8 5 Sur 6 Sur 0 -- -- 94
2020-03-21 22:00:00 4.7 2 Sudeste 5 Sur 0 -- -- 93
2020-03-21 21:00:00 6.4 0 Calma 8 Norte 0 -- -- 89
2020-03-21 20:00:00 7.6 3 Norte 5 Noroeste 0 -- -- 88
2020-03-21 19:00:00 8.4 4 Norte 11 Noroeste 0 -- -- 82
2020-03-21 18:00:00 8.5 5 Norte 9 Noroeste 0 -- -- 85
2020-03-21 17:00:00 8.2 5 Noroeste 9 Oeste 0 -- -- 84
2020-03-21 16:00:00 8.1 4 Sudoeste 13 Sudoeste 0.4 -- -- 84
2020-03-21 15:00:00 8.6 9 Sudoeste 14 Sur 0.2 -- -- 79
2020-03-21 14:00:00 9 4 Oeste 15 Sudoeste 0 -- -- 75
2020-03-21 13:00:00 7.4 11 Sudoeste 18 Sur 0.6 -- -- 88
2020-03-21 12:00:00 6.7 5 Sudoeste 12 Sudoeste 1.4 -- -- 93
2020-03-21 11:00:00 6.7 8 Sudoeste 16 Sudoeste 0.6 -- -- 91
2020-03-21 10:00:00 6.8 8 Sudoeste 21 Oeste 0.6 -- -- 92
2020-03-21 09:00:00 7.2 10 Oeste 17 Oeste 0 -- -- 92
2020-03-21 08:00:00 7.5 3 Oeste 7 Noroeste 0 -- -- 95
2020-03-21 07:00:00 7.6 4 Norte 11 Noroeste 0 -- -- 93
2020-03-21 06:00:00 8.5 4 Sudoeste 16 Sudeste 0 -- -- 85
2020-03-21 05:00:00 9 12 Sudeste 18 Este 0 -- -- 81
2020-03-21 04:00:00 8.9 11 Este 27 Este 0 -- -- 83
2020-03-21 03:00:00 8.2 15 Este 26 Este 0 -- -- 86
2020-03-21 02:00:00 8.3 15 Este 27 Este 0 -- -- 86
2020-03-21 01:00:00 9 13 Este 27 Este 0 -- -- 83
2020-03-21 00:00:00 9.1 16 Este 25 Este 0 -- -- 82
2020-03-20 23:00:00 9 15 Este 21 Este 0 -- -- 86
2020-03-20 22:00:00 9.2 4 Este 27 Este 0 -- -- 86
2020-03-20 21:00:00 9.4 22 Este 37 Este 0 -- -- 84
2020-03-20 20:00:00 9.5 13 Este 18 Este 0 -- -- 89
2020-03-20 19:00:00 10.4 8 Este 17 Este 0 -- -- 84
2020-03-20 18:00:00 11.4 6 Nordeste 10 Nordeste 0 -- -- 80
2020-03-20 17:00:00 11.1 4 Norte 15 Oeste 0 -- -- 79
2020-03-20 16:00:00 10.3 11 Oeste 22 Oeste 0 -- -- 88
2020-03-20 15:00:00 9.9 9 Oeste 23 Oeste 0 -- -- 87
2020-03-20 14:00:00 10.4 15 Oeste 30 Oeste 0 -- -- 87
2020-03-20 13:00:00 11.2 9 Oeste 20 Sudoeste 0 -- -- 87
2020-03-20 12:00:00 12.2 13 Sudoeste 25 Sur 0 -- -- 77
2020-03-20 11:00:00 11.2 7 Este 13 Este 0 -- -- 81
2020-03-20 10:00:00 9.6 5 Este 11 Este 0 -- -- 87
2020-03-20 09:00:00 7 4 Sudeste 9 Este 0 -- -- 97
2020-03-20 08:00:00 5.5 0 Calma 5 Sudoeste 0 -- -- 95
2020-03-20 07:00:00 5.9 3 Sudeste 7 Sur 0 -- -- 94
2020-03-20 06:00:00 6.4 3 Sur 5 Sur 0 -- -- 94
2020-03-20 05:00:00 7.1 4 Sur 6 Sur 0 -- -- 95
2020-03-20 04:00:00 7.1 4 Sur 6 Sudeste 0 -- -- 95
2020-03-20 03:00:00 7.6 2 Sur 5 Sur 0 -- -- 93
2020-03-20 02:00:00 8.1 4 Sur 6 Sur 0 -- -- 94
2020-03-20 01:00:00 8.3 0 Calma 4 Sur 0 -- -- 92
2020-03-20 00:00:00 8.6 3 Sur 5 Sur 0 -- -- 92
2020-03-19 23:00:00 9.1 3 Sudeste 9 Sudoeste 0 -- -- 90
2020-03-19 22:00:00 9.7 4 Sur 5 Sur 0 -- -- 90
2020-03-19 21:00:00 10.6 3 Sur 4 Sur 0 -- -- 88
2020-03-19 20:00:00 11.7 0 Calma 6 Este 0 -- -- 84
2020-03-19 19:00:00 12.9 5 Este 12 Nordeste 0 -- -- 79
2020-03-19 18:00:00 13.6 8 Este 13 Este 0 -- -- 72
2020-03-19 17:00:00 13.8 6 Nordeste 11 Nordeste 0 -- -- 80
2020-03-19 16:00:00 13.8 4 Norte 9 Noroeste 0 -- -- 80
2020-03-19 15:00:00 13.4 6 Norte 12 Norte 0 -- -- 80
2020-03-19 14:00:00 14.1 4 Norte 10 Nordeste 0 -- -- 75
2020-03-19 13:00:00 13.4 5 Norte 10 Norte 0 -- -- 79
2020-03-19 12:00:00 12.6 4 Este 8 Nordeste 0 -- -- 76
2020-03-19 11:00:00 10.9 3 Este 5 Norte 0 -- -- 82
2020-03-19 10:00:00 8 0 Calma 6 Sudoeste 0 -- -- 94
2020-03-19 09:00:00 4.8 2 Sudeste 4 Sudeste 0 -- -- 96
2020-03-19 08:00:00 4.1 0 Calma 7 Sur 0 -- -- 94
2020-03-19 07:00:00 5 3 Sudoeste 6 Sur 0 -- -- 94
2020-03-19 06:00:00 5.4 0 Calma 5 Sudeste 0 -- -- 93
2020-03-19 05:00:00 5.7 0 Calma 4 Sudoeste 0 -- -- 93
2020-03-19 04:00:00 6 3 Noroeste 8 Sur 0 -- -- 92
2020-03-19 03:00:00 6.5 5 Sur 7 Sur 0 -- -- 90
2020-03-19 02:00:00 7.5 4 Sudoeste 7 Sur 0 -- -- 87
2020-03-19 01:00:00 8.7 6 Este 13 Este 0 -- -- 85
2020-03-19 00:00:00 8.9 0 Calma 13 Este 0 -- -- 83
2020-03-18 23:00:00 10.1 10 Este 15 Nordeste 0 -- -- 80
2020-03-18 22:00:00 11.2 12 Este 19 Este 0 -- -- 83
2020-03-18 21:00:00 12.1 12 Este 17 Este 0 -- -- 85
2020-03-18 20:00:00 12.9 6 Nordeste 21 Este 0 -- -- 83
2020-03-18 19:00:00 14.3 13 Nordeste 23 Este 0 -- -- 79
2020-03-18 18:00:00 15.4 17 Este 26 Este 0 -- -- 73
2020-03-18 17:00:00 16.2 20 Este 30 Este 0 -- -- 69
2020-03-18 16:00:00 16.4 20 Nordeste 30 Nordeste 0 -- -- 69
2020-03-18 15:00:00 15.9 18 Nordeste 28 Nordeste 0 -- -- 71
2020-03-18 14:00:00 15.5 18 Nordeste 28 Nordeste 0 -- -- 73
2020-03-18 13:00:00 13.6 15 Nordeste 23 Este 0 -- -- 75
2020-03-18 12:00:00 12.2 14 Nordeste 23 Este 0 -- -- 79
2020-03-18 11:00:00 9.5 11 Nordeste 23 Nordeste 0 -- -- 89
2020-03-18 10:00:00 7.8 14 Nordeste 24 Nordeste 0 -- -- 94
2020-03-18 09:00:00 6.4 2 Este 24 Nordeste 0 -- -- 96
2020-03-18 08:00:00 5.9 18 Este 31 Este 0 -- -- 96
2020-03-18 07:00:00 5.4 19 Este 31 Este 0 -- -- 96
2020-03-18 06:00:00 5.7 15 Este 22 Este 0 -- -- 95
2020-03-18 05:00:00 6.1 9 Nordeste 26 Este 0 -- -- 94
2020-03-18 04:00:00 6.8 21 Este 33 Este 0 -- -- 93
2020-03-18 03:00:00 6.8 16 Este 26 Este 0 -- -- 93
2020-03-18 02:00:00 6.8 18 Este 23 Este 0 -- -- 90
2020-03-18 01:00:00 7 13 Este 21 Este 0 -- -- 89
2020-03-18 00:00:00 7.6 16 Este 22 Este 0 -- -- 89
2020-03-17 23:00:00 8.1 17 Este 21 Este 0 -- -- 88
2020-03-17 22:00:00 9.1 17 Este 23 Este 0 -- -- 85
2020-03-17 21:00:00 9.2 5 Nordeste 19 Nordeste 0 -- -- 83
2020-03-17 20:00:00 10.4 15 Este 22 Nordeste 0 -- -- 80
2020-03-17 19:00:00 13.4 9 Nordeste 31 Este 0 -- -- 72
2020-03-17 18:00:00 14 19 Este 42 Este 0 -- -- 69
2020-03-17 17:00:00 13.9 27 Este 39 Este 0 -- -- 67
2020-03-17 16:00:00 12.2 21 Este 35 Nordeste 0 -- -- 77
2020-03-17 15:00:00 11.2 19 Este 25 Nordeste 0 -- -- 78
2020-03-17 14:00:00 9.7 14 Este 26 Este 0 -- -- 81
2020-03-17 13:00:00 9.4 18 Este 30 Nordeste 0 -- -- 79
2020-03-17 12:00:00 7.6 19 Este 27 Este 0 -- -- 88
2020-03-17 11:00:00 6.4 13 Este 17 Nordeste 0 -- -- 95
2020-03-17 10:00:00 5.9 11 Este 21 Este 0 -- -- 96
2020-03-17 09:00:00 5.3 14 Este 23 Este 0 -- -- 97
2020-03-17 08:00:00 4.5 13 Este 22 Este 0 -- -- 97
2020-03-17 07:00:00 4 13 Este 19 Este 0 -- -- 96
2020-03-17 06:00:00 3.4 10 Este 15 Este 0 -- -- 95
2020-03-17 05:00:00 3.3 10 Este 26 Este 0 -- -- 92
2020-03-17 04:00:00 4.4 18 Nordeste 41 Nordeste 0 -- -- 91
2020-03-17 03:00:00 4.6 17 Nordeste 40 Nordeste 0 -- -- 94
2020-03-17 02:00:00 3.5 12 Nordeste 23 Nordeste 0.4 -- -- 96
2020-03-17 01:00:00 3.2 12 Este 35 Nordeste 1 -- -- 94
2020-03-17 00:00:00 4.7 18 Nordeste 38 Nordeste 2 -- -- 94
2020-03-16 23:00:00 4.4 21 Nordeste 55 Norte 1.2 -- -- 93
2020-03-16 22:00:00 4.6 31 Nordeste 52 Nordeste 0.4 -- -- 90
2020-03-16 21:00:00 4.8 25 Nordeste 50 Nordeste 0.2 -- -- 89
2020-03-16 20:00:00 4.6 23 Nordeste 57 Nordeste 0.4 -- -- 89
2020-03-16 19:00:00 5 27 Nordeste 52 Nordeste 0.2 -- -- 86
2020-03-16 18:00:00 4.8 25 Nordeste 46 Nordeste 1.4 -- -- 88
2020-03-16 17:00:00 4.4 21 Norte 48 Nordeste 2 -- -- 90
2020-03-16 16:00:00 3.3 16 Norte 36 Nordeste 1.8 -- -- 92
2020-03-16 15:00:00 3.9 16 Norte 32 Norte 0.6 -- -- 90
2020-03-16 14:00:00 3.5 14 Norte 28 Norte 0.4 -- -- 90
2020-03-16 13:00:00 2.2 15 Norte 35 Norte 1 -- -- 94
2020-03-16 12:00:00 2.3 15 Norte 35 Norte 0.6 -- -- 94
2020-03-16 11:00:00 1.7 13 Norte 25 Norte 0.8 -- -- 95
2020-03-16 10:00:00 0.8 11 Noroeste 24 Noroeste 1.4 -- -- 97
2020-03-16 09:00:00 0.5 13 Noroeste 27 Noroeste 0.8 -- -- 96
2020-03-16 08:00:00 0.5 14 Noroeste 30 Noroeste 0.8 -- -- 97
2020-03-16 07:00:00 0.6 16 Noroeste 30 Noroeste 0.8 -- -- 96
2020-03-16 06:00:00 0.5 13 Noroeste 25 Noroeste 0.8 -- -- 96
2020-03-16 05:00:00 0.6 9 Noroeste 21 Noroeste 1 -- -- 95
2020-03-16 04:00:00 0.9 12 Noroeste 24 Oeste 0 -- -- 93
2020-03-16 03:00:00 1.6 16 Noroeste 26 Oeste 0 -- -- 91
2020-03-16 02:00:00 1.6 9 Noroeste 27 Oeste 0.4 -- -- 92
2020-03-16 01:00:00 2.1 15 Oeste 27 Oeste 0 -- -- 88
2020-03-16 00:00:00 2.8 12 Oeste 33 Oeste 0 -- -- 87
2020-03-15 23:00:00 2.9 15 Oeste 32 Oeste 0.2 -- -- 90
2020-03-15 22:00:00 3.5 14 Oeste 35 Oeste 0.2 -- -- 89
2020-03-15 21:00:00 5 22 Noroeste 48 Oeste 0 -- -- 82
2020-03-15 20:00:00 9.2 16 Sudoeste 32 Oeste 0 -- -- 69
2020-03-15 19:00:00 10.8 17 Oeste 35 Sudoeste 0 -- -- 63
2020-03-15 18:00:00 11.6 19 Oeste 39 Oeste 0 -- -- 66
2020-03-15 17:00:00 13.1 23 Oeste 35 Oeste 0 -- -- 67
2020-03-15 16:00:00 14 23 Oeste 49 Oeste 0 -- -- 68
2020-03-15 15:00:00 16.6 26 Sudoeste 46 Sudoeste 0 -- -- 53
2020-03-15 14:00:00 17.2 26 Sudoeste 38 Sudoeste 0 -- -- 46
2020-03-15 13:00:00 16.7 23 Sudoeste 37 Sudoeste 0 -- -- 50
2020-03-15 12:00:00 17.6 24 Sudoeste 36 Sudoeste 0 -- -- 54
2020-03-15 11:00:00 15.5 11 Oeste 19 Oeste 0 -- -- 53
2020-03-15 10:00:00 9.4 2 Nordeste 5 Este 0 -- -- 74
2020-03-15 09:00:00 2.3 0 Calma 5 Sur 0 -- -- 90
2020-03-15 08:00:00 -1.6 3 Sudeste 5 Sudeste 0 -- -- 92
2020-03-15 07:00:00 -2 4 Sur 7 Sur 0 -- -- 92
2020-03-15 06:00:00 -1.9 3 Sur 9 Sur 0 -- -- 89
2020-03-15 05:00:00 -1.5 4 Sur 8 Sur 0 -- -- 89
2020-03-15 04:00:00 -1.4 6 Sur 8 Sur 0 -- -- 88
2020-03-15 03:00:00 -1.1 6 Sur 10 Sur 0 -- -- 88
2020-03-15 02:00:00 -0.8 6 Sur 8 Sur 0 -- -- 87
2020-03-15 01:00:00 0.1 4 Sur 8 Sur 0 -- -- 85
2020-03-15 00:00:00 0.9 5 Sur 9 Sur 0 -- -- 83
2020-03-14 23:00:00 1.6 7 Sur 11 Sur 0 -- -- 80
2020-03-14 22:00:00 3.2 5 Sur 10 Sur 0 -- -- 76
2020-03-14 21:00:00 5.7 6 Sur 9 Sur 0 -- -- 67
2020-03-14 20:00:00 11.6 0 Calma 8 Nordeste 0 -- -- 51
2020-03-14 19:00:00 16.4 4 Nordeste 9 Norte 0 -- -- 36
2020-03-14 18:00:00 17.5 6 Norte 13 Norte 0 -- -- 28
2020-03-14 17:00:00 18.1 6 Nordeste 15 Nordeste 0 -- -- 30
2020-03-14 16:00:00 17.8 7 Nordeste 16 Este 0 -- -- 32
2020-03-14 15:00:00 16.9 9 Nordeste 21 Nordeste 0 -- -- 32
2020-03-14 14:00:00 15.7 12 Este 22 Nordeste 0 -- -- 40
2020-03-14 13:00:00 14 13 Este 21 Este 0 -- -- 44
2020-03-14 12:00:00 12.1 14 Este 21 Este 0 -- -- 55
2020-03-14 11:00:00 9.6 10 Este 15 Este 0 -- -- 79
2020-03-14 10:00:00 6.5 10 Este 14 Este 0 -- -- 94
2020-03-14 09:00:00 0.5 0 Calma 5 Sur 0 -- -- 98
2020-03-14 08:00:00 -1.5 3 Sur 4 Sur 0 -- -- 95
2020-03-14 07:00:00 -1 0 Calma 3 Este 0 -- -- 94
2020-03-14 06:00:00 -0.5 3 Sur 6 Sur 0 -- -- 93
2020-03-14 05:00:00 0.4 0 Calma 5 Norte 0 -- -- 90
2020-03-14 04:00:00 2.3 5 Norte 9 Sudeste 0 -- -- 95
2020-03-14 03:00:00 3.1 2 Sudeste 9 Este 0 -- -- 94
2020-03-14 02:00:00 3.5 3 Este 10 Nordeste 0 -- -- 92
2020-03-14 01:00:00 3.4 2 Norte 9 Este 0 -- -- 92
2020-03-14 00:00:00 3.2 5 Sur 10 Sur 0 -- -- 91
2020-03-13 23:00:00 5 2 Este 8 Sur 0 -- -- 89
2020-03-13 22:00:00 7.8 5 Nordeste 15 Norte 0 -- -- 83
2020-03-13 21:00:00 8.8 0 Calma 4 Nordeste 0 -- -- 81
2020-03-13 20:00:00 11.3 0 Calma 15 Norte 0 -- -- 76
2020-03-13 19:00:00 13.9 7 Norte 18 Norte 0 -- -- 69
2020-03-13 18:00:00 14.6 10 Norte 27 Norte 0 -- -- 68
2020-03-13 17:00:00 15.5 9 Nordeste 20 Nordeste 0 -- -- 66
2020-03-13 16:00:00 15 11 Norte 21 Norte 0 -- -- 67
2020-03-13 15:00:00 15.1 12 Nordeste 24 Nordeste 0 -- -- 69
2020-03-13 14:00:00 12.8 10 Nordeste 23 Nordeste 0 -- -- 74
2020-03-13 13:00:00 11.5 14 Nordeste 25 Nordeste 0 -- -- 79
2020-03-13 12:00:00 10 11 Nordeste 24 Este 0 -- -- 83
2020-03-13 11:00:00 8.9 17 Este 27 Nordeste 0 -- -- 87
2020-03-13 10:00:00 8.4 19 Nordeste 28 Nordeste 0 -- -- 87
2020-03-13 09:00:00 7.6 17 Nordeste 27 Nordeste 0 -- -- 90
2020-03-13 08:00:00 7.2 19 Nordeste 29 Este 0 -- -- 91
2020-03-13 07:00:00 7.1 10 Nordeste 19 Nordeste 0 -- -- 94
2020-03-13 06:00:00 6.8 6 Nordeste 15 Nordeste 0 -- -- 94
2020-03-13 05:00:00 6.8 8 Nordeste 13 Nordeste 0 -- -- 95
2020-03-13 04:00:00 6.7 5 Norte 9 Nordeste 0 -- -- 93
2020-03-13 03:00:00 7.9 6 Nordeste 13 Este 0 -- -- 92
2020-03-13 02:00:00 8.5 8 Nordeste 15 Nordeste 0 -- -- 91
2020-03-13 01:00:00 8.7 7 Nordeste 11 Nordeste 0 -- -- 93
2020-03-13 00:00:00 8.8 2 Sur 8 Sur 0 -- -- 87
2020-03-12 23:00:00 10.8 3 Sur 5 Sudeste 0 -- -- 85
2020-03-12 22:00:00 12.1 3 Sur 9 Sur 0 -- -- 83
2020-03-12 21:00:00 13.9 3 Sur 5 Sur 0 -- -- 79
2020-03-12 20:00:00 16.6 4 Sudeste 5 Sudeste 0 -- -- 71
2020-03-12 19:00:00 18.6 4 Norte 17 Oeste 0 -- -- 64
2020-03-12 18:00:00 20 9 Noroeste 15 Noroeste 0 -- -- 60
2020-03-12 17:00:00 20.5 8 Noroeste 19 Noroeste 0 -- -- 55
2020-03-12 16:00:00 20.8 12 Oeste 18 Oeste 0 -- -- 50
2020-03-12 15:00:00 20.6 9 Oeste 19 Noroeste 0 -- -- 49
2020-03-12 14:00:00 22.1 8 Oeste 28 Sudoeste 0 -- -- 44
2020-03-12 13:00:00 22.8 17 Sudoeste 38 Sur 0 -- -- 37
2020-03-12 12:00:00 20.9 21 Sur 32 Sudoeste 0 -- -- 39
2020-03-12 11:00:00 17.3 3 Este 5 Noroeste 0 -- -- 64
2020-03-12 10:00:00 11.7 0 Calma 5 Sudoeste 0 -- -- 83
2020-03-12 09:00:00 7.7 0 Calma 8 Sur 0 -- -- 90
2020-03-12 08:00:00 6.5 5 Sur 9 Sur 0 -- -- 89
2020-03-12 07:00:00 7.2 0 Calma 6 Sur 0 -- -- 88
2020-03-12 06:00:00 8 3 Sur 9 Sur 0 -- -- 87
2020-03-12 05:00:00 8.4 3 Sur 7 Sur 0 -- -- 87
2020-03-12 04:00:00 9 4 Sur 8 Sur 0 -- -- 86
2020-03-12 03:00:00 9.6 4 Sur 6 Sur 0 -- -- 85
2020-03-12 02:00:00 10.4 3 Sur 6 Sur 0 -- -- 83
2020-03-12 01:00:00 10.6 2 Sudeste 6 Sur 0 -- -- 82
2020-03-12 00:00:00 11.2 4 Sur 7 Sur 0 -- -- 82
2020-03-11 23:00:00 12.2 3 Sudeste 8 Sur 0 -- -- 79
2020-03-11 22:00:00 13.3 8 Sur 9 Sur 0 -- -- 75
2020-03-11 21:00:00 14.9 6 Sur 9 Sur 0 -- -- 69
2020-03-11 20:00:00 17.2 0 Calma 9 Sudoeste 0 -- -- 58
2020-03-11 19:00:00 19.5 7 Sudoeste 14 Sur 0 -- -- 50
2020-03-11 18:00:00 22.1 5 Sudoeste 16 Oeste 0 -- -- 45
2020-03-11 17:00:00 23.3 10 Oeste 24 Oeste 0 -- -- 41
2020-03-11 16:00:00 23.5 12 Oeste 21 Oeste 0 -- -- 39
2020-03-11 15:00:00 23.2 10 Oeste 23 Oeste 0 -- -- 39
2020-03-11 14:00:00 22.5 13 Oeste 22 Oeste 0 -- -- 42
2020-03-11 13:00:00 21.5 10 Oeste 18 Oeste 0 -- -- 46
2020-03-11 12:00:00 19.4 3 Norte 8 Nordeste 0 -- -- 61
2020-03-11 11:00:00 16 3 Este 7 Nordeste 0 -- -- 68
2020-03-11 10:00:00 11.1 3 Norte 5 Noroeste 0 -- -- 84
2020-03-11 09:00:00 6 0 Calma 2 Noroeste 0 -- -- 94
2020-03-11 08:00:00 2.8 0 Calma 6 Sur 0 -- -- 93
2020-03-11 07:00:00 3 5 Sur 6 Sur 0 -- -- 93
2020-03-11 06:00:00 3.4 4 Sur 6 Sur 0 -- -- 92
2020-03-11 05:00:00 4.1 5 Sur 9 Sur 0 -- -- 92
2020-03-11 04:00:00 4.7 4 Sur 8 Sur 0 -- -- 91
2020-03-11 03:00:00 5.7 8 Sur 12 Sur 0 -- -- 91
2020-03-11 02:00:00 5.9 5 Sur 8 Sur 0 -- -- 90
2020-03-11 01:00:00 6.3 3 Sudoeste 7 Sur 0 -- -- 91
2020-03-11 00:00:00 7 5 Sur 10 Sur 0 -- -- 89
2020-03-10 23:00:00 7.8 8 Sur 13 Sur 0 -- -- 87
2020-03-10 22:00:00 9.2 8 Sur 12 Sur 0 -- -- 83
2020-03-10 21:00:00 11 7 Sur 10 Sur 0 -- -- 78
2020-03-10 20:00:00 16.3 0 Calma 8 Noroeste 0 -- -- 62
2020-03-10 19:00:00 19.7 5 Noroeste 21 Oeste 0 -- -- 51
2020-03-10 18:00:00 21 15 Oeste 24 Oeste 0 -- -- 48
2020-03-10 17:00:00 21.3 17 Oeste 27 Oeste 0 -- -- 48
2020-03-10 16:00:00 21.5 15 Oeste 28 Oeste 0 -- -- 45
2020-03-10 15:00:00 21.2 13 Sudoeste 24 Oeste 0 -- -- 47
2020-03-10 14:00:00 20.2 12 Sudoeste 18 Oeste 0 -- -- 49
2020-03-10 13:00:00 18.5 10 Oeste 18 Oeste 0 -- -- 48
2020-03-10 12:00:00 16.2 3 Este 10 Nordeste 0 -- -- 55
2020-03-10 11:00:00 12.4 2 Este 6 Sudeste 0 -- -- 74
2020-03-10 10:00:00 8 0 Calma 6 Noroeste 0 -- -- 87
2020-03-10 09:00:00 4.5 5 Noroeste 6 Norte 0 -- -- 94
2020-03-10 08:00:00 2.4 3 Sur 5 Sudeste 0 -- -- 92
2020-03-10 07:00:00 2.8 0 Calma 5 Sur 0 -- -- 91
2020-03-10 06:00:00 3.3 5 Sur 7 Sur 0 -- -- 93
2020-03-10 05:00:00 2.5 4 Sur 6 Sur 0 -- -- 91
2020-03-10 04:00:00 2.4 5 Sur 10 Sur 0 -- -- 90
2020-03-10 03:00:00 2.8 5 Sur 8 Sudoeste 0 -- -- 89
2020-03-10 02:00:00 3.2 6 Sur 11 Sur 0 -- -- 87
2020-03-10 01:00:00 3.7 8 Sur 11 Sur 0 -- -- 87
2020-03-10 00:00:00 4 6 Sur 8 Sur 0 -- -- 86
2020-03-09 23:00:00 4.5 5 Sur 11 Sur 0 -- -- 86
2020-03-09 22:00:00 5.3 4 Sur 8 Sur 0 -- -- 82
2020-03-09 21:00:00 6.6 6 Sur 9 Sur 0 -- -- 77
2020-03-09 20:00:00 9.7 4 Sur 8 Noroeste 0 -- -- 67
2020-03-09 19:00:00 12.9 5 Noroeste 15 Oeste 0 -- -- 52
2020-03-09 18:00:00 14.2 8 Noroeste 18 Oeste 0 -- -- 47
2020-03-09 17:00:00 14.3 9 Noroeste 15 Noroeste 0 -- -- 46
2020-03-09 16:00:00 13.6 8 Noroeste 16 Noroeste 0 -- -- 44
2020-03-09 15:00:00 13 8 Noroeste 17 Noroeste 0 -- -- 55
2020-03-09 14:00:00 11.4 7 Oeste 15 Oeste 0 -- -- 64
2020-03-09 13:00:00 10.1 8 Oeste 17 Oeste 0 -- -- 69
2020-03-09 12:00:00 8.8 7 Noroeste 16 Oeste 0 -- -- 73
2020-03-09 11:00:00 7.3 9 Oeste 19 Oeste 0 -- -- 82
2020-03-09 10:00:00 5.9 10 Oeste 17 Oeste 0 -- -- 90
2020-03-09 09:00:00 3.5 7 Sudoeste 12 Sudoeste 0 -- -- 98
2020-03-09 08:00:00 2.3 10 Sudoeste 18 Oeste 0 -- -- 97
2020-03-09 07:00:00 2.5 6 Sudoeste 12 Sudoeste 0 -- -- 96
2020-03-09 06:00:00 2.9 5 Sudoeste 9 Sudoeste 0 -- -- 96
2020-03-09 05:00:00 3.5 6 Oeste 11 Oeste 0 -- -- 96
2020-03-09 04:00:00 4.1 6 Oeste 11 Oeste 0 -- -- 95
2020-03-09 03:00:00 4.9 8 Sudoeste 15 Sudoeste 0 -- -- 93
2020-03-09 02:00:00 6.1 8 Oeste 18 Oeste 0 -- -- 94
2020-03-09 01:00:00 6.7 11 Oeste 23 Sudoeste 0 -- -- 93
2020-03-09 00:00:00 7.6 14 Oeste 33 Oeste 0 -- -- 93
2020-03-08 23:00:00 7.8 16 Oeste 29 Sudoeste 0 -- -- 92
2020-03-08 22:00:00 8.2 18 Oeste 28 Sudoeste 0 -- -- 92
2020-03-08 21:00:00 7.3 8 Sudoeste 15 Sudoeste 0 -- -- 91
2020-03-08 20:00:00 8.5 10 Sudoeste 20 Sudoeste 0 -- -- 86
2020-03-08 19:00:00 10.2 13 Sudoeste 28 Oeste 0 -- -- 80
2020-03-08 18:00:00 10.5 18 Oeste 27 Oeste 0 -- -- 79
2020-03-08 17:00:00 10.5 18 Oeste 29 Oeste 0 -- -- 75
2020-03-08 16:00:00 10.6 16 Sudoeste 29 Sudoeste 0 -- -- 72
2020-03-08 15:00:00 9.5 17 Oeste 28 Oeste 0 -- -- 72
2020-03-08 14:00:00 9.1 16 Sudoeste 27 Oeste 0 -- -- 80
2020-03-08 13:00:00 9 17 Sudoeste 26 Sudoeste 0 -- -- 78
2020-03-08 12:00:00 7.4 13 Oeste 22 Oeste 0 -- -- 86
2020-03-08 11:00:00 6.5 13 Sudoeste 18 Sudoeste 0 -- -- 96
2020-03-08 10:00:00 4.6 12 Sudoeste 19 Sudoeste 0 -- -- 98
2020-03-08 09:00:00 3.8 11 Sudoeste 21 Sudoeste 0 -- -- 98
2020-03-08 08:00:00 3.6 12 Sudoeste 19 Sudoeste 0 -- -- 98
2020-03-08 07:00:00 2.6 7 Sudoeste 14 Oeste 0 -- -- 98
2020-03-08 06:00:00 0 7 Sur 10 Sur 0 -- -- 97
2020-03-08 05:00:00 0.5 4 Sudoeste 15 Sudoeste 0 -- -- 96
2020-03-08 04:00:00 -1.1 4 Sudoeste 9 Sur 0 -- -- 94
2020-03-08 03:00:00 -1.3 6 Sur 9 Sur 0 -- -- 92
2020-03-08 02:00:00 -0.6 5 Sur 11 Sur 0 -- -- 91
2020-03-08 01:00:00 0.2 6 Sur 10 Sur 0 -- -- 91
2020-03-08 00:00:00 1.1 8 Sur 14 Sur 0 -- -- 92
2020-03-07 23:00:00 1.6 5 Sur 10 Sur 0 -- -- 87
2020-03-07 22:00:00 3.1 6 Sur 11 Sur 0 -- -- 85
2020-03-07 21:00:00 5 7 Sur 10 Sur 0 -- -- 80
2020-03-07 20:00:00 9.3 3 Sur 9 Oeste 0 -- -- 70
2020-03-07 19:00:00 12.7 3 Norte 11 Norte 0 -- -- 58
2020-03-07 18:00:00 12.9 5 Noroeste 16 Oeste 0 -- -- 56
2020-03-07 17:00:00 13.7 7 Oeste 18 Oeste 0 -- -- 58
2020-03-07 16:00:00 13.3 5 Norte 12 Este 0 -- -- 57
2020-03-07 15:00:00 12.3 3 Nordeste 14 Nordeste 0 -- -- 57
2020-03-07 14:00:00 11.4 6 Este 14 Este 0 -- -- 60
2020-03-07 13:00:00 10.2 5 Norte 15 Nordeste 0 -- -- 64
2020-03-07 12:00:00 9 5 Sudeste 12 Sudoeste 0 -- -- 71
2020-03-07 11:00:00 6.5 8 Sur 13 Sur 0 -- -- 83
2020-03-07 10:00:00 4.4 8 Sur 11 Sur 0 -- -- 95
2020-03-07 09:00:00 1.1 6 Sur 9 Sudoeste 0 -- -- 94
2020-03-07 08:00:00 0.7 8 Sur 10 Sudoeste 0 -- -- 94
2020-03-07 07:00:00 0.4 5 Sudoeste 11 Sudoeste 0 -- -- 94
2020-03-07 06:00:00 -0.6 5 Sur 8 Sur 0 -- -- 93
2020-03-07 05:00:00 -0.7 5 Sur 6 Sur 0 -- -- 92
2020-03-07 04:00:00 -0.5 5 Sur 9 Sur 0 -- -- 92
2020-03-07 03:00:00 -0.5 4 Sur 10 Sur 0 -- -- 87
2020-03-07 02:00:00 0.5 6 Sur 10 Sur 0 -- -- 89
2020-03-07 01:00:00 1.7 6 Sur 18 Noroeste 0 -- -- 84
2020-03-07 00:00:00 2.5 4 Noroeste 15 Oeste 0 -- -- 79
2020-03-06 23:00:00 2.6 7 Sur 14 Noroeste 0 -- -- 82
2020-03-06 22:00:00 4.4 3 Sur 24 Noroeste 0 -- -- 74
2020-03-06 21:00:00 4.8 6 Oeste 15 Oeste 0 -- -- 74
2020-03-06 20:00:00 6.1 8 Oeste 28 Noroeste 0 -- -- 69
2020-03-06 19:00:00 7.9 12 Noroeste 32 Noroeste 0 -- -- 62
2020-03-06 18:00:00 8.9 19 Noroeste 40 Oeste 0 -- -- 55
2020-03-06 17:00:00 9 22 Noroeste 38 Noroeste 0 -- -- 56
2020-03-06 16:00:00 9.2 22 Noroeste 47 Oeste 0 -- -- 55
2020-03-06 15:00:00 9 21 Noroeste 44 Noroeste 0 -- -- 61
2020-03-06 14:00:00 8.5 22 Noroeste 40 Oeste 0 -- -- 60
2020-03-06 13:00:00 7.5 21 Oeste 41 Oeste 0 -- -- 66
2020-03-06 12:00:00 6.3 21 Oeste 49 Oeste 0 -- -- 75
2020-03-06 11:00:00 5.4 20 Oeste 34 Noroeste 0 -- -- 85
2020-03-06 10:00:00 4.4 20 Oeste 33 Oeste 0.2 -- -- 88
2020-03-06 09:00:00 4.1 15 Oeste 33 Oeste 0 -- -- 84
2020-03-06 08:00:00 3.6 15 Oeste 39 Oeste 0 -- -- 85
2020-03-06 07:00:00 4 14 Oeste 28 Oeste 0 -- -- 92
2020-03-06 06:00:00 4.8 15 Noroeste 43 Oeste 0 -- -- 89
2020-03-06 05:00:00 5.3 20 Oeste 42 Oeste 0 -- -- 83
2020-03-06 04:00:00 5.5 23 Oeste 45 Sudoeste 0 -- -- 90
2020-03-06 03:00:00 5.4 21 Sudoeste 39 Sudoeste 0.2 -- -- 90
2020-03-06 02:00:00 5.1 20 Sudoeste 36 Sudoeste 0 -- -- 88
2020-03-06 01:00:00 4.5 19 Sudoeste 35 Sudoeste 0 -- -- 89
2020-03-06 00:00:00 4.5 13 Sudoeste 27 Sudoeste 0 -- -- 88
2020-03-05 23:00:00 4.5 15 Sudoeste 26 Sudoeste 0 -- -- 86
2020-03-05 22:00:00 5.7 17 Oeste 28 Oeste 0 -- -- 85
2020-03-05 21:00:00 6.6 18 Oeste 55 Oeste 0 -- -- 80
2020-03-05 20:00:00 7.7 15 Noroeste 31 Oeste 0.4 -- -- 82
2020-03-05 19:00:00 8.4 12 Noroeste 42 Oeste 0 -- -- 84
2020-03-05 18:00:00 10.9 20 Oeste 45 Oeste 0 -- -- 67
2020-03-05 17:00:00 11.1 26 Oeste 53 Sudoeste 0 -- -- 64
2020-03-05 16:00:00 11.7 27 Oeste 45 Oeste 0 -- -- 67
2020-03-05 15:00:00 10.8 25 Oeste 50 Oeste 0 -- -- 71
2020-03-05 14:00:00 11 30 Oeste 55 Oeste 0 -- -- 67
2020-03-05 13:00:00 10.4 32 Oeste 58 Oeste 0 -- -- 69
2020-03-05 12:00:00 9.8 29 Oeste 53 Oeste 0 -- -- 73
2020-03-05 11:00:00 8.3 25 Oeste 52 Oeste 0 -- -- 81
2020-03-05 10:00:00 7 27 Oeste 60 Oeste 0.6 -- -- 89
2020-03-05 09:00:00 8.9 29 Oeste 68 Oeste 1 -- -- 92
2020-03-05 08:00:00 9.8 29 Sudoeste 50 Sudoeste 0.2 -- -- 91
2020-03-05 07:00:00 10.6 28 Sudoeste 59 Sudoeste 0 -- -- 85
2020-03-05 06:00:00 10.7 25 Sudoeste 51 Sudoeste 0 -- -- 76
2020-03-05 05:00:00 10.2 21 Sudoeste 40 Sudoeste 0 -- -- 79
2020-03-05 04:00:00 10.2 21 Sudoeste 37 Sudoeste 0 -- -- 87
2020-03-05 03:00:00 10.9 22 Sudoeste 36 Sudoeste 0 -- -- 88
2020-03-05 02:00:00 10.7 17 Sudoeste 29 Sudoeste 0 -- -- 88
2020-03-05 01:00:00 11 13 Sudoeste 27 Sudoeste 0 -- -- 87
2020-03-05 00:00:00 11 16 Sudoeste 28 Sudoeste 0 -- -- 86
2020-03-04 23:00:00 10.9 12 Sudoeste 20 Sudoeste 0 -- -- 86
2020-03-04 22:00:00 11.2 15 Sudoeste 26 Sudoeste 0 -- -- 85
2020-03-04 21:00:00 11.3 13 Sudoeste 22 Sudoeste 0 -- -- 85
2020-03-04 20:00:00 11.1 12 Sudoeste 20 Sudoeste 0 -- -- 86
2020-03-04 19:00:00 12.1 15 Sudoeste 27 Sudoeste 0 -- -- 81
2020-03-04 18:00:00 12.6 15 Sudoeste 32 Sudoeste 0 -- -- 78
2020-03-04 17:00:00 12.9 20 Sudoeste 31 Oeste 0 -- -- 74
2020-03-04 16:00:00 13.2 18 Oeste 31 Oeste 0 -- -- 74
2020-03-04 15:00:00 13.2 18 Oeste 31 Oeste 0 -- -- 74
2020-03-04 14:00:00 12.8 20 Sudoeste 32 Oeste 0 -- -- 76
2020-03-04 13:00:00 11.8 14 Oeste 31 Sudoeste 0 -- -- 82
2020-03-04 12:00:00 11.4 18 Oeste 28 Oeste 0 -- -- 84
2020-03-04 11:00:00 10.4 18 Sudoeste 30 Sudoeste 0 -- -- 91
2020-03-04 10:00:00 9.6 16 Sudoeste 27 Sudoeste 0 -- -- 94
2020-03-04 09:00:00 9 10 Sudoeste 23 Sudoeste 0 -- -- 95
2020-03-04 08:00:00 9 15 Sudoeste 30 Sudoeste 0 -- -- 94
2020-03-04 07:00:00 9.3 19 Sudoeste 31 Sudoeste 0 -- -- 94
2020-03-04 06:00:00 9.3 13 Sudoeste 30 Sudoeste 0 -- -- 94
2020-03-04 05:00:00 9.9 19 Oeste 44 Oeste 0.2 -- -- 95
2020-03-04 04:00:00 10.4 15 Sudoeste 25 Sudoeste 0 -- -- 95
2020-03-04 03:00:00 10.5 13 Sudoeste 32 Sudoeste 0.2 -- -- 95
2020-03-04 02:00:00 10.7 16 Sudoeste 33 Sudoeste 0 -- -- 95
2020-03-04 01:00:00 10.9 20 Sudoeste 39 Sudoeste 0 -- -- 95
2020-03-04 00:00:00 11.1 16 Sudoeste 27 Oeste 0 -- -- 94
2020-03-03 23:00:00 11.6 16 Sudoeste 31 Oeste 0 -- -- 91
2020-03-03 22:00:00 11.6 15 Sudoeste 31 Oeste 0 -- -- 90
2020-03-03 21:00:00 11.8 19 Oeste 30 Oeste 0 -- -- 90
2020-03-03 20:00:00 12.1 17 Oeste 32 Oeste 0 -- -- 88
2020-03-03 19:00:00 12.3 20 Oeste 37 Sudoeste 0 -- -- 86
2020-03-03 18:00:00 12.8 20 Oeste 34 Oeste 0 -- -- 85
2020-03-03 17:00:00 13.5 21 Oeste 42 Oeste 0 -- -- 81
2020-03-03 16:00:00 13.4 22 Oeste 42 Sudoeste 0 -- -- 83
2020-03-03 15:00:00 12.4 22 Oeste 39 Oeste 0 -- -- 87
2020-03-03 14:00:00 11.8 25 Oeste 46 Oeste 0 -- -- 87
2020-03-03 13:00:00 11.3 24 Oeste 49 Oeste 0 -- -- 86
2020-03-03 12:00:00 10 23 Sudoeste 45 Sudoeste 0 -- -- 88
2020-03-03 11:00:00 8.7 27 Sudoeste 52 Oeste 0 -- -- 87
2020-03-03 10:00:00 7.5 25 Sudoeste 45 Sudoeste 0 -- -- 90
2020-03-03 09:00:00 6.6 28 Sudoeste 47 Sudoeste 0 -- -- 89
2020-03-03 08:00:00 6.5 31 Sudoeste 50 Sudoeste 0 -- -- 86
2020-03-03 07:00:00 6.5 31 Sudoeste 56 Sudoeste 0 -- -- 84
2020-03-03 06:00:00 6.4 32 Sudoeste 49 Sudoeste 0 -- -- 82
2020-03-03 05:00:00 6.4 24 Sudoeste 40 Sudoeste 0 -- -- 80
2020-03-03 04:00:00 5.6 14 Sudoeste 28 Sudoeste 0 -- -- 81
2020-03-03 03:00:00 5.2 18 Sudoeste 30 Sudoeste 0 -- -- 82
2020-03-03 02:00:00 4.8 17 Sudoeste 28 Sudoeste 0 -- -- 84
2020-03-03 01:00:00 4.4 18 Sudoeste 28 Sudoeste 0 -- -- 83
2020-03-03 00:00:00 4 13 Sudoeste 25 Sudoeste 0 -- -- 82
2020-03-02 23:00:00 3.5 9 Sudoeste 20 Sur 0 -- -- 80
2020-03-02 22:00:00 3.7 14 Sudoeste 21 Sudoeste 0 -- -- 84
2020-03-02 21:00:00 4.3 13 Oeste 27 Oeste 0 -- -- 80
2020-03-02 20:00:00 5.2 15 Oeste 36 Oeste 0 -- -- 76
2020-03-02 19:00:00 6.1 14 Oeste 38 Oeste 0 -- -- 70
2020-03-02 18:00:00 7.5 26 Oeste 44 Noroeste 0 -- -- 63
2020-03-02 17:00:00 7.9 27 Oeste 43 Oeste 0 -- -- 64
2020-03-02 16:00:00 7.5 26 Oeste 48 Oeste 0 -- -- 63
2020-03-02 15:00:00 6.4 23 Noroeste 53 Noroeste 0 -- -- 75
2020-03-02 14:00:00 4.9 38 Noroeste 64 Noroeste 0.2 -- -- 77
2020-03-02 13:00:00 4.7 27 Noroeste 71 Oeste 0.2 -- -- 89
2020-03-02 12:00:00 7.9 35 Oeste 62 Oeste 0 -- -- 68
2020-03-02 11:00:00 6.6 30 Oeste 57 Oeste 0 -- -- 76
2020-03-02 10:00:00 6.2 30 Oeste 50 Oeste 0 -- -- 82
2020-03-02 09:00:00 6.4 26 Oeste 43 Sudoeste 0 -- -- 80
2020-03-02 08:00:00 6.3 27 Oeste 58 Oeste 0.2 -- -- 80
2020-03-02 07:00:00 7.7 31 Oeste 81 Oeste 0 -- -- 79
2020-03-02 06:00:00 9.1 39 Oeste 87 Oeste 0 -- -- 75
2020-03-02 05:00:00 10.6 45 Oeste 128 Oeste 0.2 -- -- 82
2020-03-02 04:00:00 10.6 39 Sudoeste 75 Oeste 0.2 -- -- 89
2020-03-02 03:00:00 10 29 Sudoeste 72 Sudoeste 0.8 -- -- 90
2020-03-02 02:00:00 10 43 Sudoeste 77 Sudoeste 0.6 -- -- 86
2020-03-02 01:00:00 10.9 46 Sudoeste 78 Sudoeste 0 -- -- 81
2020-03-02 00:00:00 10.3 38 Sudoeste 71 Sudoeste 0.6 -- -- 85
2020-03-01 23:00:00 10.7 43 Sudoeste 74 Sudoeste 1 -- -- 87
2020-03-01 22:00:00 11.1 30 Sudoeste 60 Sudoeste 0.2 -- -- 86
2020-03-01 21:00:00 11 35 Sudoeste 52 Sudoeste 0.6 -- -- 86
2020-03-01 20:00:00 10.9 23 Sudoeste 58 Sudoeste 0.2 -- -- 83
2020-03-01 19:00:00 12.7 25 Sudoeste 39 Sur 0 -- -- 66
2020-03-01 18:00:00 12.9 20 Sudoeste 45 Sudoeste 0 -- -- 69
2020-03-01 17:00:00 14.7 31 Oeste 54 Oeste 0 -- -- 60
2020-03-01 16:00:00 14.6 40 Oeste 61 Sudoeste 0 -- -- 55
2020-03-01 15:00:00 13.3 32 Oeste 58 Sudoeste 0 -- -- 69
2020-03-01 14:00:00 13.9 32 Oeste 56 Oeste 0 -- -- 65
2020-03-01 13:00:00 13.6 26 Sudoeste 49 Sudoeste 0 -- -- 69
2020-03-01 12:00:00 12.1 28 Sudoeste 49 Sudoeste 0 -- -- 77
2020-03-01 11:00:00 10.3 26 Sudoeste 57 Sudoeste 0 -- -- 82
2020-03-01 10:00:00 9.7 27 Sudoeste 49 Sudoeste 0 -- -- 84
2020-03-01 09:00:00 8.9 26 Sudoeste 42 Sudoeste 0 -- -- 81
2020-03-01 08:00:00 8 23 Sudoeste 40 Sudoeste 0 -- -- 84
2020-03-01 07:00:00 8 26 Sudoeste 41 Sudoeste 0 -- -- 84
2020-03-01 06:00:00 7.3 14 Sudoeste 32 Sudoeste 0 -- -- 85
2020-03-01 05:00:00 6.8 16 Sudoeste 28 Sudoeste 0 -- -- 88
2020-03-01 04:00:00 6.5 17 Sudoeste 37 Sudoeste 0 -- -- 92
2020-03-01 03:00:00 6.6 24 Sudoeste 41 Sudoeste 0 -- -- 91
2020-03-01 02:00:00 7.2 17 Sudoeste 33 Sudoeste 0 -- -- 83
2020-03-01 01:00:00 7.2 18 Sudoeste 33 Sudoeste 0 -- -- 82
2020-03-01 00:00:00 7.2 19 Sudoeste 31 Sudoeste 0 -- -- 80
2020-02-29 23:00:00 6.8 19 Sudoeste 54 Sudoeste 0 -- -- 83
2020-02-29 22:00:00 7.8 29 Sudoeste 44 Sudoeste 0 -- -- 76
2020-02-29 21:00:00 7.2 13 Sudoeste 27 Oeste 0 -- -- 76
2020-02-29 20:00:00 7.5 14 Sudoeste 34 Oeste 0 -- -- 74
2020-02-29 19:00:00 8.3 21 Oeste 50 Oeste 0 -- -- 71
2020-02-29 18:00:00 9.4 29 Oeste 53 Oeste 0 -- -- 65
2020-02-29 17:00:00 10.4 28 Oeste 55 Sudoeste 0 -- -- 62
2020-02-29 16:00:00 11 39 Oeste 64 Oeste 0 -- -- 66
2020-02-29 15:00:00 11.5 35 Oeste 60 Oeste 0 -- -- 71
2020-02-29 14:00:00 11.1 28 Oeste 52 Oeste 0.4 -- -- 85
2020-02-29 13:00:00 11.6 32 Sudoeste 58 Oeste 0 -- -- 87
2020-02-29 12:00:00 12.3 30 Sudoeste 51 Sudoeste 0 -- -- 76
2020-02-29 11:00:00 10.4 28 Sudoeste 45 Sur 0 -- -- 79
2020-02-29 10:00:00 9.1 28 Sudoeste 48 Sudoeste 0 -- -- 82
2020-02-29 09:00:00 8.2 28 Sudoeste 48 Sudoeste 0 -- -- 80
2020-02-29 08:00:00 6.2 18 Sur 38 Sur 0 -- -- 84
2020-02-29 07:00:00 7.1 22 Sudoeste 43 Sudoeste 0 -- -- 77
2020-02-29 06:00:00 7 18 Sudoeste 32 Oeste 0 -- -- 67
2020-02-29 05:00:00 7.6 17 Sudoeste 28 Oeste 0 -- -- 60
2020-02-29 04:00:00 8.3 17 Sudoeste 27 Sudoeste 0 -- -- 60
2020-02-29 03:00:00 8.2 13 Sudoeste 21 Sudoeste 0 -- -- 68
2020-02-29 02:00:00 9.2 14 Sur 22 Sur 0 -- -- 68
2020-02-29 01:00:00 7.6 15 Sur 21 Sur 0 -- -- 74
2020-02-29 00:00:00 6.7 11 Sur 13 Sur 0 -- -- 78
2020-02-28 23:00:00 6.6 9 Sur 13 Sur 0 -- -- 77
2020-02-28 22:00:00 8.5 11 Sur 16 Sudoeste 0 -- -- 68
2020-02-28 21:00:00 9.7 13 Sur 19 Sur 0 -- -- 62
2020-02-28 20:00:00 10.3 9 Sudoeste 15 Sudoeste 0 -- -- 54
2020-02-28 19:00:00 13.8 12 Sudoeste 27 Sudoeste 0 -- -- 43
2020-02-28 18:00:00 15.9 21 Sudoeste 32 Sudoeste 0 -- -- 38
2020-02-28 17:00:00 16.8 18 Sudoeste 37 Sur 0 -- -- 37
2020-02-28 16:00:00 17.4 24 Sudoeste 35 Sudoeste 0 -- -- 33
2020-02-28 15:00:00 17.5 21 Sur 32 Sudoeste 0 -- -- 31
2020-02-28 14:00:00 16.8 4 Este 13 Este 0 -- -- 42
2020-02-28 13:00:00 14.7 8 Este 13 Este 0 -- -- 46
2020-02-28 12:00:00 12.8 8 Nordeste 12 Este 0 -- -- 37
2020-02-28 11:00:00 9.4 0 Calma 4 Sur 0 -- -- 70
2020-02-28 10:00:00 4.4 4 Sur 5 Sur 0 -- -- 85
2020-02-28 09:00:00 0 4 Sur 7 Sur 0 -- -- 93
2020-02-28 08:00:00 -0.6 5 Sur 8 Sur 0 -- -- 92
2020-02-28 07:00:00 -0.4 3 Sur 8 Sur 0 -- -- 92
2020-02-28 06:00:00 -0.2 5 Sur 10 Sur 0 -- -- 91
2020-02-28 05:00:00 0.5 6 Sur 9 Sur 0 -- -- 91
2020-02-28 04:00:00 1.5 7 Sur 10 Sur 0 -- -- 93
2020-02-28 03:00:00 1.8 6 Sur 11 Sudoeste 0 -- -- 92
2020-02-28 02:00:00 3.4 5 Sudoeste 14 Sur 0 -- -- 88
2020-02-28 01:00:00 3.7 9 Sur 13 Sudeste 0 -- -- 88
2020-02-28 00:00:00 4.1 9 Sudoeste 14 Sudoeste 0 -- -- 86